Time;durP1;ratioP1;P1;durP2;ratioP2;P2;SDS_P1;SDS_P2;PMS_P1;PMS_P2;Temp;Humidity;BMP_temperature;BMP_pressure;BME280_temperature;BME280_humidity;BME280_pressure;Samples;Min_cycle;Max_cycle;Signal;HPM_P1;HPM_P2
2022/08/16 00:00:43;;;;;;;;;;;20.30;99.90;;;;;;5029518;28;19935;-85
2022/08/16 00:03:09;;;;;;;;;;;20.40;99.90;;;;;;5027548;28;20398;-85
2022/08/16 00:05:35;;;;;;;;;;;20.20;99.90;;;;;;5029438;28;20407;-86
2022/08/16 00:08:01;;;;;;;;;;;20.20;99.90;;;;;;4992510;28;20014;-85
2022/08/16 00:10:28;;;;;;;;;;;20.20;99.90;;;;;;5008976;28;20298;-86
2022/08/16 00:12:55;;;;;;;;;;;20.40;99.90;;;;;;4994289;28;19928;-86
2022/08/16 00:15:41;;;;;;;;;;;20.20;99.90;;;;;;5006696;28;20571;-86
2022/08/16 00:18:08;;;;;;;;;;;20.20;99.90;;;;;;4992329;28;19925;-86
2022/08/16 00:20:35;;;;;;;;;;;20.20;99.90;;;;;;4993837;28;19929;-86
2022/08/16 00:23:04;;;;;;;;;;;20.10;99.90;;;;;;4993955;28;20416;-85
2022/08/16 00:25:30;;;;;;;;;;;20.10;99.90;;;;;;5010043;28;20451;-86
2022/08/16 00:27:56;;;;;;;;;;;20.20;99.90;;;;;;5011845;28;19926;-86
2022/08/16 00:30:22;;;;;;;;;;;20.30;99.90;;;;;;5028880;28;20054;-86
2022/08/16 00:32:50;;;;;;;;;;;20.10;99.90;;;;;;5027396;28;20336;-86
2022/08/16 00:35:17;;;;;;;;;;;19.90;99.90;;;;;;5010752;28;19925;-85
2022/08/16 00:37:43;;;;;;;;;;;20.10;99.90;;;;;;5027682;28;19929;-86
2022/08/16 00:40:09;;;;;;;;;;;20.10;99.90;;;;;;5012152;28;19947;-86
2022/08/16 00:42:35;;;;;;;;;;;20.10;99.90;;;;;;4993875;28;20214;-86
2022/08/16 00:45:06;;;;;;;;;;;20.10;99.90;;;;;;5011600;28;19932;-84
2022/08/16 00:47:32;;;;;;;;;;;20.10;99.90;;;;;;4994883;28;20295;-84
2022/08/16 00:49:58;;;;;;;;;;;20.10;99.90;;;;;;5011280;28;19921;-85
2022/08/16 00:52:23;;;;;;;;;;;20.10;99.90;;;;;;5011721;28;19921;-84
2022/08/16 00:54:49;;;;;;;;;;;20.10;99.90;;;;;;5030863;28;20297;-85
2022/08/16 00:57:14;;;;;;;;;;;20.10;99.90;;;;;;5020537;28;20004;-85
2022/08/16 00:59:40;;;;;;;;;;;20.00;99.90;;;;;;4993399;28;20305;-85
2022/08/16 01:02:07;;;;;;;;;;;20.00;99.90;;;;;;4996691;28;20005;-85
2022/08/16 01:04:33;;;;;;;;;;;20.00;99.90;;;;;;5015596;28;19921;-85
2022/08/16 01:07:00;;;;;;;;;;;20.00;99.90;;;;;;5016343;28;20316;-85
2022/08/16 01:09:25;;;;;;;;;;;19.90;99.90;;;;;;4998064;28;20237;-85
2022/08/16 01:11:51;;;;;;;;;;;20.00;99.90;;;;;;5024304;28;19956;-85
2022/08/16 01:14:38;;;;;;;;;;;19.90;99.90;;;;;;5027019;28;19909;-85
2022/08/16 01:17:03;;;;;;;;;;;19.90;99.90;;;;;;5007059;28;19921;-85
2022/08/16 01:19:34;;;;;;;;;;;20.00;99.90;;;;;;5034552;28;19995;-84
2022/08/16 01:22:05;;;;;;;;;;;19.90;99.90;;;;;;5017410;28;19929;-84
2022/08/16 01:24:43;;;;;;;;;;;19.90;99.90;;;;;;5008938;28;19921;-85
2022/08/16 01:27:11;;;;;;;;;;;19.90;99.90;;;;;;4996506;28;20290;-85
2022/08/16 01:29:43;;;;;;;;;;;19.90;99.90;;;;;;5011785;28;20000;-85
2022/08/16 01:32:09;;;;;;;;;;;19.90;99.90;;;;;;5024237;28;19996;-85
2022/08/16 01:34:34;;;;;;;;;;;19.90;99.90;;;;;;5016212;28;20717;-86
2022/08/16 01:37:06;;;;;;;;;;;19.90;99.90;;;;;;5014202;28;19921;-86
2022/08/16 01:39:32;;;;;;;;;;;19.90;99.90;;;;;;5008480;28;19944;-85
2022/08/16 01:41:58;;;;;;;;;;;19.80;99.90;;;;;;5013628;28;19924;-85
2022/08/16 01:44:23;;;;;;;;;;;19.80;99.90;;;;;;5022178;28;20381;-85
2022/08/16 01:46:49;;;;;;;;;;;19.80;99.90;;;;;;5010263;28;19928;-87
2022/08/16 01:49:31;;;;;;;;;;;19.80;99.90;;;;;;4999897;28;20340;-88
2022/08/16 01:51:59;;;;;;;;;;;19.70;99.90;;;;;;5032428;28;19925;-86
2022/08/16 01:54:24;;;;;;;;;;;19.70;99.90;;;;;;4995443;28;19921;-86
2022/08/16 01:56:50;;;;;;;;;;;19.70;99.90;;;;;;4996989;28;20807;-87
2022/08/16 01:59:16;;;;;;;;;;;19.70;99.90;;;;;;5003706;28;20728;-86
2022/08/16 02:01:43;;;;;;;;;;;19.70;99.90;;;;;;4994861;28;19971;-87
2022/08/16 02:04:09;;;;;;;;;;;19.70;99.90;;;;;;5023313;28;20362;-86
2022/08/16 02:06:34;;;;;;;;;;;19.60;99.90;;;;;;5009886;28;19931;-85
2022/08/16 02:09:00;;;;;;;;;;;19.80;99.90;;;;;;5023112;28;19948;-88
2022/08/16 02:11:27;;;;;;;;;;;19.60;99.90;;;;;;5011665;28;19925;-89
2022/08/16 02:13:54;;;;;;;;;;;19.70;99.90;;;;;;4985882;28;20453;-87
2022/08/16 02:16:19;;;;;;;;;;;19.70;99.90;;;;;;5014105;28;20594;-85
2022/08/16 02:18:46;;;;;;;;;;;19.60;99.90;;;;;;4990113;28;19921;-85
2022/08/16 02:21:12;;;;;;;;;;;19.70;99.90;;;;;;5029237;28;19925;-87
2022/08/16 02:23:38;;;;;;;;;;;19.60;99.90;;;;;;5012592;28;19932;-88
2022/08/16 02:26:04;;;;;;;;;;;19.70;99.90;;;;;;4989354;28;19945;-85
2022/08/16 02:28:30;;;;;;;;;;;19.70;99.90;;;;;;5007133;28;20461;-88
2022/08/16 02:30:58;;;;;;;;;;;19.70;99.90;;;;;;5011097;28;19936;-88
2022/08/16 02:33:24;;;;;;;;;;;19.70;99.90;;;;;;4994304;28;19932;-86
2022/08/16 02:35:49;;;;;;;;;;;19.70;99.90;;;;;;5026437;28;19928;-88
2022/08/16 02:38:15;;;;;;;;;;;19.80;99.90;;;;;;5021626;28;20287;-85
2022/08/16 02:40:41;;;;;;;;;;;19.80;99.90;;;;;;4992688;28;20006;-85
2022/08/16 02:43:06;;;;;;;;;;;19.80;99.90;;;;;;5012057;28;19932;-84
2022/08/16 02:45:32;;;;;;;;;;;19.80;99.90;;;;;;5008997;28;19924;-84
2022/08/16 02:47:58;;;;;;;;;;;19.90;99.90;;;;;;5027525;28;19976;-84
2022/08/16 02:50:24;;;;;;;;;;;20.00;99.90;;;;;;5011088;28;19929;-85
2022/08/16 02:52:49;;;;;;;;;;;19.90;99.90;;;;;;5017947;28;19921;-86
2022/08/16 02:55:15;;;;;;;;;;;19.90;99.90;;;;;;5013557;28;19928;-85
2022/08/16 02:57:41;;;;;;;;;;;19.90;99.90;;;;;;4995440;28;19921;-85
2022/08/16 03:00:08;;;;;;;;;;;19.90;99.90;;;;;;5014420;28;19971;-84
2022/08/16 03:02:35;;;;;;;;;;;19.90;99.90;;;;;;5014930;28;20340;-90
2022/08/16 03:05:03;;;;;;;;;;;19.90;99.90;;;;;;5012653;28;20374;-87
2022/08/16 03:07:29;;;;;;;;;;;19.90;99.90;;;;;;5004567;28;19929;-86
2022/08/16 03:09:56;;;;;;;;;;;19.80;99.90;;;;;;5027202;28;19967;-89
2022/08/16 03:12:22;;;;;;;;;;;19.80;99.90;;;;;;5029222;28;20020;-86
2022/08/16 03:14:48;;;;;;;;;;;19.90;99.90;;;;;;5018047;28;20015;-85
2022/08/16 03:17:13;;;;;;;;;;;19.80;99.90;;;;;;5012909;28;19928;-84
2022/08/16 03:19:39;;;;;;;;;;;19.80;99.90;;;;;;5026467;28;19929;-85
2022/08/16 03:22:05;;;;;;;;;;;19.90;99.90;;;;;;5027006;28;19925;-83
2022/08/16 03:24:30;;;;;;;;;;;19.80;99.90;;;;;;5011203;28;20011;-86
2022/08/16 03:26:57;;;;;;;;;;;19.70;99.90;;;;;;5027312;28;19967;-84
2022/08/16 03:29:23;;;;;;;;;;;19.70;99.90;;;;;;5012250;28;20043;-88
2022/08/16 03:31:50;;;;;;;;;;;19.60;99.90;;;;;;5013557;28;19936;-85
2022/08/16 03:34:16;;;;;;;;;;;19.60;99.90;;;;;;5016955;28;19921;-85
2022/08/16 03:36:41;;;;;;;;;;;19.50;99.90;;;;;;5014472;28;20492;-85
2022/08/16 03:39:07;;;;;;;;;;;19.60;99.90;;;;;;5012963;28;20445;-88
2022/08/16 03:41:36;;;;;;;;;;;19.50;99.90;;;;;;5000937;28;20329;-86
2022/08/16 03:44:02;;;;;;;;;;;19.50;99.90;;;;;;5014523;28;19929;-85
2022/08/16 03:46:28;;;;;;;;;;;19.40;99.90;;;;;;5027830;28;20059;-85
2022/08/16 03:48:54;;;;;;;;;;;19.30;99.90;;;;;;5005453;28;20397;-88
2022/08/16 03:51:20;;;;;;;;;;;19.30;99.90;;;;;;5015347;28;20012;-85
2022/08/16 03:53:45;;;;;;;;;;;19.30;99.90;;;;;;5014715;28;19924;-85
2022/08/16 03:56:11;;;;;;;;;;;19.20;99.90;;;;;;5011022;28;20430;-86
2022/08/16 03:58:36;;;;;;;;;;;19.20;99.90;;;;;;5016617;28;20028;-85
2022/08/16 04:01:03;;;;;;;;;;;19.20;99.90;;;;;;5015690;28;19998;-85
2022/08/16 04:03:28;;;;;;;;;;;19.10;99.90;;;;;;5013452;28;19929;-87
2022/08/16 04:05:54;;;;;;;;;;;19.10;99.90;;;;;;5021799;28;20425;-87
2022/08/16 04:08:20;;;;;;;;;;;19.10;99.90;;;;;;5017720;28;19986;-89
2022/08/16 04:10:46;;;;;;;;;;;19.00;99.90;;;;;;4996215;28;19975;-86
2022/08/16 04:13:12;;;;;;;;;;;19.00;99.90;;;;;;5013664;28;19928;-86
2022/08/16 04:15:38;;;;;;;;;;;19.00;99.90;;;;;;5021051;28;19928;-88
2022/08/16 04:18:04;;;;;;;;;;;18.90;99.90;;;;;;5015773;28;20404;-86
2022/08/16 04:20:30;;;;;;;;;;;18.90;99.90;;;;;;5013210;28;19921;-86
2022/08/16 04:22:56;;;;;;;;;;;18.90;99.90;;;;;;4996413;28;19921;-87
2022/08/16 04:25:22;;;;;;;;;;;18.80;99.90;;;;;;5000418;28;19928;-86
2022/08/16 04:27:48;;;;;;;;;;;18.80;99.90;;;;;;5012448;28;19925;-89
2022/08/16 04:30:16;;;;;;;;;;;18.80;99.90;;;;;;5008199;28;20374;-89
2022/08/16 04:32:42;;;;;;;;;;;18.80;99.90;;;;;;5054454;28;20097;-86
2022/08/16 04:35:09;;;;;;;;;;;18.80;99.90;;;;;;5026035;28;19925;-87
2022/08/16 04:37:35;;;;;;;;;;;18.70;99.90;;;;;;5038623;28;19914;-87
2022/08/16 04:40:01;;;;;;;;;;;18.70;99.90;;;;;;5056802;28;19912;-87
2022/08/16 04:42:26;;;;;;;;;;;18.70;99.90;;;;;;5039467;28;20004;-89
2022/08/16 04:44:54;;;;;;;;;;;18.70;99.90;;;;;;5038663;28;20015;-86
2022/08/16 04:47:20;;;;;;;;;;;18.80;99.90;;;;;;5006150;28;19928;-86
2022/08/16 04:49:45;;;;;;;;;;;18.70;99.90;;;;;;5037699;28;19980;-87
2022/08/16 04:52:11;;;;;;;;;;;18.70;99.90;;;;;;5004230;28;20358;-87
2022/08/16 04:54:43;;;;;;;;;;;18.70;99.90;;;;;;5006079;28;19925;-86
2022/08/16 04:57:08;;;;;;;;;;;18.70;99.90;;;;;;5020794;28;19935;-87
2022/08/16 04:59:34;;;;;;;;;;;18.80;99.90;;;;;;5029426;28;19964;-87
2022/08/16 05:01:59;;;;;;;;;;;18.80;99.90;;;;;;5035413;28;19921;-88
2022/08/16 05:04:30;;;;;;;;;;;18.80;99.90;;;;;;5033651;28;19921;-87
2022/08/16 05:06:56;;;;;;;;;;;18.80;99.90;;;;;;5033759;28;19943;-86
2022/08/16 05:09:22;;;;;;;;;;;18.80;99.90;;;;;;5031473;28;19928;-87
2022/08/16 05:11:47;;;;;;;;;;;18.90;99.90;;;;;;5001804;28;19928;-86
2022/08/16 05:14:13;;;;;;;;;;;18.90;99.90;;;;;;5030871;28;20036;-88
2022/08/16 05:16:39;;;;;;;;;;;18.90;99.90;;;;;;5013051;28;19928;-86
2022/08/16 05:19:05;;;;;;;;;;;19.20;99.90;;;;;;5030045;28;19995;-86
2022/08/16 05:21:31;;;;;;;;;;;19.40;99.90;;;;;;5019560;28;19940;-86
2022/08/16 05:23:57;;;;;;;;;;;19.40;99.90;;;;;;5029725;28;19979;-88
2022/08/16 05:26:24;;;;;;;;;;;19.40;99.90;;;;;;5025269;28;20378;-90
2022/08/16 05:28:49;;;;;;;;;;;19.40;99.90;;;;;;5013812;28;19921;-89
2022/08/16 05:31:15;;;;;;;;;;;19.40;99.90;;;;;;5030225;28;19967;-87
2022/08/16 05:33:41;;;;;;;;;;;19.50;99.90;;;;;;5029879;28;19948;-88
2022/08/16 05:36:06;;;;;;;;;;;19.50;99.90;;;;;;5017091;28;19922;-89
2022/08/16 05:38:32;;;;;;;;;;;19.50;99.90;;;;;;5016512;28;20378;-87
2022/08/16 05:40:59;;;;;;;;;;;19.60;99.90;;;;;;5013262;28;19976;-90
2022/08/16 05:43:24;;;;;;;;;;;19.60;99.90;;;;;;5026557;28;19925;-87
2022/08/16 05:45:50;;;;;;;;;;;19.70;99.90;;;;;;5018265;28;19921;-89
2022/08/16 05:48:16;;;;;;;;;;;19.70;99.90;;;;;;5029412;28;19943;-88
2022/08/16 05:50:41;;;;;;;;;;;19.70;99.90;;;;;;4996937;28;19978;-88
2022/08/16 05:53:07;;;;;;;;;;;19.80;99.90;;;;;;5002731;28;20363;-84
2022/08/16 05:55:33;;;;;;;;;;;19.80;99.90;;;;;;5014578;28;19925;-86
2022/08/16 05:57:58;;;;;;;;;;;19.80;99.90;;;;;;4996960;28;20396;-87
2022/08/16 06:00:24;;;;;;;;;;;19.80;99.90;;;;;;5011944;28;19928;-90
2022/08/16 06:02:50;;;;;;;;;;;19.90;99.90;;;;;;5014095;28;19925;-87
2022/08/16 06:05:15;;;;;;;;;;;19.90;99.90;;;;;;5015585;28;20293;-85
2022/08/16 06:07:41;;;;;;;;;;;20.00;99.90;;;;;;5011218;28;20535;-88
2022/08/16 06:10:07;;;;;;;;;;;20.00;99.90;;;;;;5009800;28;19932;-87
2022/08/16 06:12:33;;;;;;;;;;;20.00;99.90;;;;;;5015085;28;19929;-88
2022/08/16 06:15:01;;;;;;;;;;;20.10;99.90;;;;;;5016397;28;20023;-89
2022/08/16 06:17:28;;;;;;;;;;;20.10;99.90;;;;;;5016798;28;20309;-87
2022/08/16 06:19:54;;;;;;;;;;;20.20;99.90;;;;;;5012998;28;19928;-87
2022/08/16 06:22:19;;;;;;;;;;;20.20;99.90;;;;;;5026009;28;19921;-89
2022/08/16 06:24:45;;;;;;;;;;;20.30;99.90;;;;;;5028157;28;20290;-89
2022/08/16 06:27:11;;;;;;;;;;;20.30;99.90;;;;;;4995962;28;19974;-89
2022/08/16 06:29:36;;;;;;;;;;;20.40;99.90;;;;;;5011105;28;19928;-88
2022/08/16 06:32:02;;;;;;;;;;;20.50;99.90;;;;;;5016819;28;20393;-88
2022/08/16 06:34:28;;;;;;;;;;;20.60;99.90;;;;;;5013308;28;19929;-88
2022/08/16 06:36:53;;;;;;;;;;;20.70;99.90;;;;;;5011313;28;19975;-88
2022/08/16 06:39:19;;;;;;;;;;;20.80;99.90;;;;;;5028070;28;19932;-89
2022/08/16 06:41:44;;;;;;;;;;;21.40;99.90;;;;;;5014029;28;19927;-88
2022/08/16 06:44:10;;;;;;;;;;;21.60;99.90;;;;;;5014425;28;19975;-93
2022/08/16 06:46:36;;;;;;;;;;;21.50;99.90;;;;;;5012492;28;19921;-88
2022/08/16 06:49:09;;;;;;;;;;;21.60;99.90;;;;;;4999381;28;19925;-89
2022/08/16 06:51:35;;;;;;;;;;;21.60;99.90;;;;;;5029418;28;19921;-88
2022/08/16 06:54:01;;;;;;;;;;;21.60;99.90;;;;;;5013344;28;20022;-90
2022/08/16 06:56:27;;;;;;;;;;;21.50;99.90;;;;;;5016496;28;19925;-86
2022/08/16 06:58:53;;;;;;;;;;;21.50;99.90;;;;;;4999249;28;19983;-87
2022/08/16 07:01:19;;;;;;;;;;;21.50;99.90;;;;;;5029184;28;19921;-86
2022/08/16 07:03:45;;;;;;;;;;;21.50;99.90;;;;;;5012929;28;19921;-89
2022/08/16 07:06:11;;;;;;;;;;;21.50;99.90;;;;;;4998850;28;20003;-88
2022/08/16 07:08:36;;;;;;;;;;;21.50;99.90;;;;;;5011429;28;20000;-89
2022/08/16 07:11:02;;;;;;;;;;;21.60;99.90;;;;;;5032955;28;19968;-93
2022/08/16 07:13:29;;;;;;;;;;;21.60;99.90;;;;;;5003525;28;20096;-87
2022/08/16 07:15:55;;;;;;;;;;;21.70;99.90;;;;;;5016607;28;19927;-90
2022/08/16 07:18:21;;;;;;;;;;;21.70;99.90;;;;;;5000365;28;20358;-88
2022/08/16 07:20:47;;;;;;;;;;;21.80;99.90;;;;;;4999068;28;19963;-88
2022/08/16 07:23:13;;;;;;;;;;;21.80;99.90;;;;;;5002020;28;19960;-89
2022/08/16 07:25:39;;;;;;;;;;;22.00;99.90;;;;;;4996287;28;19982;-91
2022/08/16 07:28:04;;;;;;;;;;;22.20;99.90;;;;;;4998075;28;19924;-87
2022/08/16 07:30:31;;;;;;;;;;;22.40;99.90;;;;;;5003753;28;20011;-90
2022/08/16 07:32:56;;;;;;;;;;;22.70;99.90;;;;;;4998194;28;19921;-86
2022/08/16 07:35:22;;;;;;;;;;;22.90;99.90;;;;;;5025076;28;19932;-86
2022/08/16 07:37:48;;;;;;;;;;;23.10;99.90;;;;;;5018728;28;19928;-89
2022/08/16 07:40:14;;;;;;;;;;;23.30;99.90;;;;;;5017240;28;20322;-86
2022/08/16 07:42:39;;;;;;;;;;;23.50;99.90;;;;;;5002355;28;20012;-88
2022/08/16 07:45:05;;;;;;;;;;;23.70;99.90;;;;;;4997596;28;20300;-86
2022/08/16 07:47:31;;;;;;;;;;;24.00;99.90;;;;;;5029820;28;20342;-86
2022/08/16 07:49:56;;;;;;;;;;;24.30;99.90;;;;;;5031315;28;19929;-85
2022/08/16 07:52:22;;;;;;;;;;;24.60;99.90;;;;;;5032005;28;19968;-89
2022/08/16 07:54:48;;;;;;;;;;;24.90;99.90;;;;;;5015922;28;19921;-85
2022/08/16 07:57:14;;;;;;;;;;;25.20;99.90;;;;;;5018460;28;20306;-92
2022/08/16 07:59:39;;;;;;;;;;;25.60;99.90;;;;;;5032075;28;19928;-90
2022/08/16 08:02:05;;;;;;;;;;;26.20;99.90;;;;;;5015861;28;20024;-87
2022/08/16 08:04:33;;;;;;;;;;;26.30;99.90;;;;;;5000108;28;19920;-86
2022/08/16 08:06:58;;;;;;;;;;;26.30;99.90;;;;;;5013095;28;20218;-91
2022/08/16 08:09:24;;;;;;;;;;;26.40;99.90;;;;;;5015923;28;20336;-90
2022/08/16 08:11:50;;;;;;;;;;;26.40;99.90;;;;;;5030259;28;19924;-86
2022/08/16 08:14:16;;;;;;;;;;;26.40;99.90;;;;;;5030097;28;19925;-88
2022/08/16 08:16:42;;;;;;;;;;;26.50;99.90;;;;;;5013642;28;19971;-85
2022/08/16 08:19:11;;;;;;;;;;;26.60;99.90;;;;;;4992052;28;19967;-86
2022/08/16 08:21:37;;;;;;;;;;;26.80;99.90;;;;;;5015624;28;19971;-86
2022/08/16 08:24:04;;;;;;;;;;;27.10;99.90;;;;;;5017061;28;20452;-85
2022/08/16 08:26:29;;;;;;;;;;;27.20;99.90;;;;;;5014232;28;19936;-85
2022/08/16 08:28:55;;;;;;;;;;;27.40;99.90;;;;;;4998051;28;19921;-83
2022/08/16 08:31:20;;;;;;;;;;;27.60;99.90;;;;;;4995063;28;19931;-87
2022/08/16 08:33:46;;;;;;;;;;;27.90;99.90;;;;;;5017219;28;19935;-85
2022/08/16 08:36:14;;;;;;;;;;;28.00;99.90;;;;;;5014969;28;19927;-85
2022/08/16 08:38:40;;;;;;;;;;;28.20;99.90;;;;;;5010377;28;20383;-85
2022/08/16 08:41:07;;;;;;;;;;;28.30;99.90;;;;;;5030003;28;19978;-84
2022/08/16 08:43:34;;;;;;;;;;;28.30;99.90;;;;;;5023441;28;20052;-83
2022/08/16 08:46:00;;;;;;;;;;;28.10;99.90;;;;;;5002926;28;19976;-85
2022/08/16 08:48:25;;;;;;;;;;;28.30;99.90;;;;;;5018704;28;21248;-84
2022/08/16 08:50:51;;;;;;;;;;;28.40;99.90;;;;;;5017160;28;19929;-87
2022/08/16 08:53:16;;;;;;;;;;;28.60;99.90;;;;;;5014284;28;19935;-87
2022/08/16 08:55:43;;;;;;;;;;;28.80;99.90;;;;;;5018519;28;19932;-86
2022/08/16 08:58:12;;;;;;;;;;;29.00;99.90;;;;;;5024356;28;20017;-86
2022/08/16 09:00:38;;;;;;;;;;;29.30;99.90;;;;;;5031237;28;19964;-86
2022/08/16 09:03:03;;;;;;;;;;;29.40;99.90;;;;;;5017386;28;20351;-86
2022/08/16 09:05:29;;;;;;;;;;;29.50;99.90;;;;;;5000855;28;20039;-86
2022/08/16 09:07:55;;;;;;;;;;;29.50;99.90;;;;;;5029931;28;19921;-83
2022/08/16 09:10:21;;;;;;;;;;;29.70;99.90;;;;;;5029401;28;20135;-85
2022/08/16 09:12:46;;;;;;;;;;;29.60;99.90;;;;;;5014443;28;19971;-85
2022/08/16 09:15:14;;;;;;;;;;;29.50;99.90;;;;;;5011162;28;19921;-83
2022/08/16 09:17:41;;;;;;;;;;;29.40;99.90;;;;;;5013116;28;20453;-86
2022/08/16 09:20:07;;;;;;;;;;;29.50;99.90;;;;;;4990317;28;19925;-87
2022/08/16 09:22:33;;;;;;;;;;;29.40;99.90;;;;;;5019551;28;20157;-87
2022/08/16 09:24:59;;;;;;;;;;;29.50;99.90;;;;;;5001022;28;19921;-85
2022/08/16 09:27:25;;;;;;;;;;;29.60;99.90;;;;;;5006349;28;19921;-83
2022/08/16 09:29:51;;;;;;;;;;;29.70;99.90;;;;;;5012692;28;20594;-83
2022/08/16 09:32:17;;;;;;;;;;;29.70;99.90;;;;;;5009352;28;20503;-85
2022/08/16 09:34:43;;;;;;;;;;;29.80;99.90;;;;;;5012286;28;20323;-85
2022/08/16 09:37:08;;;;;;;;;;;29.80;99.90;;;;;;5012713;28;19931;-88
2022/08/16 09:39:34;;;;;;;;;;;29.90;99.90;;;;;;5023442;28;19983;-86
2022/08/16 09:41:59;;;;;;;;;;;30.00;99.90;;;;;;4993021;28;19922;-88
2022/08/16 09:44:26;;;;;;;;;;;30.00;99.90;;;;;;5004909;28;19924;-86
2022/08/16 09:46:53;;;;;;;;;;;30.10;99.90;;;;;;5015445;28;19982;-84
2022/08/16 09:49:19;;;;;;;;;;;30.20;99.90;;;;;;5009507;28;21726;-86
2022/08/16 09:51:45;;;;;;;;;;;30.30;99.90;;;;;;5011322;28;19932;-83
2022/08/16 09:54:11;;;;;;;;;;;30.50;99.90;;;;;;5009256;28;19929;-85
2022/08/16 09:56:37;;;;;;;;;;;30.50;99.90;;;;;;5015342;28;19939;-82
2022/08/16 09:59:04;;;;;;;;;;;30.60;99.90;;;;;;5014053;28;20374;-88
2022/08/16 10:01:30;;;;;;;;;;;30.60;99.90;;;;;;5008378;28;20015;-87
2022/08/16 10:03:56;;;;;;;;;;;30.60;99.90;;;;;;5011421;28;19960;-86
2022/08/16 10:06:22;;;;;;;;;;;30.50;99.90;;;;;;4989062;28;19972;-83
2022/08/16 10:08:48;;;;;;;;;;;30.50;99.90;;;;;;5008627;28;20299;-85
2022/08/16 10:13:58;;;;;;;;;;;30.60;99.90;;;;;;5021157;28;19925;-86
2022/08/16 10:16:23;;;;;;;;;;;30.60;99.90;;;;;;5018464;28;20286;-83
2022/08/16 10:18:49;;;;;;;;;;;30.60;99.90;;;;;;5022604;28;20324;-84
2022/08/16 10:21:15;;;;;;;;;;;30.60;99.90;;;;;;5023858;28;19936;-84
2022/08/16 10:23:42;;;;;;;;;;;30.70;99.90;;;;;;5021067;28;20008;-82
2022/08/16 10:26:07;;;;;;;;;;;30.70;99.80;;;;;;5019820;28;19960;-85
2022/08/16 10:28:34;;;;;;;;;;;30.60;99.90;;;;;;5009677;28;19925;-84
2022/08/16 10:31:00;;;;;;;;;;;30.60;99.90;;;;;;5021942;28;19935;-83
2022/08/16 10:33:27;;;;;;;;;;;30.60;99.90;;;;;;4995272;28;20031;-84
2022/08/16 10:35:52;;;;;;;;;;;30.60;99.60;;;;;;5011850;28;19987;-82
2022/08/16 10:38:18;;;;;;;;;;;30.60;99.90;;;;;;5013077;28;19928;-83
2022/08/16 10:40:44;;;;;;;;;;;30.60;99.50;;;;;;5024743;28;19931;-81
2022/08/16 10:43:10;;;;;;;;;;;30.60;99.50;;;;;;5030163;28;19935;-83
2022/08/16 10:45:36;;;;;;;;;;;30.60;98.80;;;;;;5022025;28;20386;-87
2022/08/16 10:48:02;;;;;;;;;;;30.60;98.60;;;;;;5026023;28;19928;-84
2022/08/16 10:50:28;;;;;;;;;;;30.60;99.60;;;;;;5018226;28;20007;-83
2022/08/16 10:52:54;;;;;;;;;;;30.70;98.50;;;;;;5008865;28;20424;-83
2022/08/16 10:55:20;;;;;;;;;;;30.80;98.50;;;;;;5007306;28;19932;-82
2022/08/16 10:57:45;;;;;;;;;;;30.80;98.40;;;;;;5023044;28;19944;-82
2022/08/16 11:00:13;;;;;;;;;;;30.80;98.50;;;;;;4987352;28;19924;-84
2022/08/16 11:02:39;;;;;;;;;;;30.80;98.80;;;;;;4987079;28;20364;-86
2022/08/16 11:05:08;;;;;;;;;;;30.90;98.70;;;;;;5020050;28;20015;-86
2022/08/16 11:07:34;;;;;;;;;;;31.00;98.60;;;;;;4989376;28;20444;-84
2022/08/16 11:10:01;;;;;;;;;;;31.10;98.50;;;;;;5010357;28;19960;-83
2022/08/16 11:12:27;;;;;;;;;;;31.00;98.30;;;;;;5007650;28;19971;-83
2022/08/16 11:14:52;;;;;;;;;;;31.10;98.90;;;;;;5008113;28;19960;-82
2022/08/16 11:17:18;;;;;;;;;;;31.10;97.40;;;;;;4985387;28;19925;-82
2022/08/16 11:19:43;;;;;;;;;;;31.10;98.00;;;;;;4989748;28;19925;-83
2022/08/16 11:22:09;;;;;;;;;;;31.20;98.50;;;;;;5008075;28;19967;-85
2022/08/16 11:24:39;;;;;;;;;;;31.30;98.20;;;;;;5025511;28;19925;-82
2022/08/16 11:27:12;;;;;;;;;;;31.40;97.40;;;;;;5018454;28;20390;-82
2022/08/16 11:29:38;;;;;;;;;;;31.40;96.90;;;;;;5022680;28;19925;-82
2022/08/16 11:32:04;;;;;;;;;;;31.50;97.60;;;;;;5009710;28;19925;-83
2022/08/16 11:34:33;;;;;;;;;;;31.60;97.10;;;;;;5010319;28;19925;-83
2022/08/16 11:36:59;;;;;;;;;;;31.70;97.00;;;;;;5010572;28;19925;-84
2022/08/16 11:39:26;;;;;;;;;;;31.60;96.60;;;;;;4996352;28;20020;-89
2022/08/16 11:41:51;;;;;;;;;;;31.50;96.60;;;;;;5004364;28;19936;-86
2022/08/16 11:44:17;;;;;;;;;;;31.60;96.80;;;;;;5010107;28;19929;-82
2022/08/16 11:46:42;;;;;;;;;;;31.60;96.70;;;;;;5012122;28;19929;-84
2022/08/16 11:49:08;;;;;;;;;;;31.60;96.60;;;;;;4997395;28;19929;-87
2022/08/16 11:51:34;;;;;;;;;;;31.50;95.90;;;;;;5000137;28;19925;-86
2022/08/16 11:54:00;;;;;;;;;;;31.40;95.60;;;;;;5012137;28;20031;-87
2022/08/16 11:56:26;;;;;;;;;;;31.40;95.70;;;;;;4997600;28;19940;-83
2022/08/16 11:58:51;;;;;;;;;;;31.30;95.90;;;;;;5012072;28;20205;-85
2022/08/16 12:01:17;;;;;;;;;;;31.30;95.80;;;;;;5011279;28;19925;-85
2022/08/16 12:03:43;;;;;;;;;;;31.30;94.80;;;;;;5025087;28;20293;-84
2022/08/16 12:06:11;;;;;;;;;;;31.30;95.30;;;;;;5024181;28;19930;-84
2022/08/16 12:08:38;;;;;;;;;;;31.40;94.00;;;;;;5011377;28;20327;-85
2022/08/16 12:11:04;;;;;;;;;;;31.20;94.90;;;;;;5008499;28;20086;-83
2022/08/16 12:13:33;;;;;;;;;;;30.90;94.50;;;;;;5013341;28;19929;-86
2022/08/16 12:15:58;;;;;;;;;;;30.60;94.50;;;;;;4997791;28;19932;-84
2022/08/16 12:18:24;;;;;;;;;;;30.40;94.20;;;;;;5005721;28;20313;-82
2022/08/16 12:20:50;;;;;;;;;;;30.30;94.60;;;;;;5008018;28;19924;-84
2022/08/16 12:23:16;;;;;;;;;;;30.40;95.50;;;;;;4995157;28;20445;-80
2022/08/16 12:25:42;;;;;;;;;;;30.50;95.00;;;;;;4998911;28;19992;-81
2022/08/16 12:28:08;;;;;;;;;;;30.50;94.60;;;;;;5005957;28;19964;-84
2022/08/16 12:30:35;;;;;;;;;;;30.50;95.00;;;;;;5010431;28;19932;-84
2022/08/16 12:33:01;;;;;;;;;;;30.50;95.20;;;;;;4994497;28;19936;-85
2022/08/16 12:35:28;;;;;;;;;;;30.60;96.20;;;;;;5012208;28;19929;-90
2022/08/16 12:37:55;;;;;;;;;;;30.60;95.40;;;;;;4992716;28;20399;-84
2022/08/16 12:40:23;;;;;;;;;;;30.60;95.80;;;;;;4994909;28;19928;-84
2022/08/16 12:42:50;;;;;;;;;;;30.80;96.10;;;;;;5025221;28;19931;-85
2022/08/16 12:45:17;;;;;;;;;;;30.80;95.90;;;;;;5021232;28;19924;-85
2022/08/16 12:50:27;;;;;;;;;;;30.80;95.70;;;;;;5013023;28;19974;-85
2022/08/16 12:52:53;;;;;;;;;;;30.90;96.20;;;;;;5015462;28;20021;-86
2022/08/16 12:55:18;;;;;;;;;;;30.90;96.00;;;;;;5022843;28;20656;-84
2022/08/16 12:57:44;;;;;;;;;;;30.90;96.10;;;;;;5009629;28;20385;-85
2022/08/16 13:00:12;;;;;;;;;;;31.00;96.20;;;;;;5015432;28;19981;-84
2022/08/16 13:02:45;;;;;;;;;;;31.10;96.70;;;;;;5008362;28;19925;-82
2022/08/16 13:05:10;;;;;;;;;;;31.10;96.90;;;;;;5008320;28;20015;-84
2022/08/16 13:07:36;;;;;;;;;;;31.10;97.30;;;;;;5009593;28;20004;-84
2022/08/16 13:10:08;;;;;;;;;;;31.10;97.30;;;;;;5006624;28;20442;-82
2022/08/16 13:12:37;;;;;;;;;;;30.90;97.40;;;;;;5000493;28;20310;-80
2022/08/16 13:15:03;;;;;;;;;;;30.90;97.30;;;;;;4999945;28;20045;-85
2022/08/16 13:17:29;;;;;;;;;;;30.80;96.70;;;;;;5000088;28;19925;-83
2022/08/16 13:19:54;;;;;;;;;;;30.60;96.30;;;;;;4999592;28;19932;-81
2022/08/16 13:22:21;;;;;;;;;;;30.60;96.40;;;;;;4996967;28;20079;-84
2022/08/16 13:24:46;;;;;;;;;;;30.40;96.40;;;;;;4982352;28;19925;-87
2022/08/16 13:27:12;;;;;;;;;;;30.30;96.80;;;;;;4998143;28;19929;-83
2022/08/16 13:29:37;;;;;;;;;;;30.20;96.70;;;;;;5002898;28;19926;-84
2022/08/16 13:32:04;;;;;;;;;;;30.10;96.30;;;;;;5005810;28;20434;-86
2022/08/16 13:34:32;;;;;;;;;;;30.00;96.10;;;;;;4986926;28;19972;-83
2022/08/16 13:36:58;;;;;;;;;;;30.00;96.40;;;;;;4986349;28;20346;-89
2022/08/16 13:39:23;;;;;;;;;;;30.10;96.10;;;;;;4987147;28;19965;-86
2022/08/16 13:41:49;;;;;;;;;;;30.20;96.30;;;;;;5021240;28;19979;-86
2022/08/16 13:44:17;;;;;;;;;;;30.20;95.80;;;;;;4988353;28;19932;-82
2022/08/16 13:46:44;;;;;;;;;;;30.20;95.30;;;;;;5002642;28;19926;-87
2022/08/16 13:49:10;;;;;;;;;;;30.30;96.10;;;;;;5005048;28;19925;-83
2022/08/16 13:51:35;;;;;;;;;;;30.30;96.20;;;;;;5009273;28;19928;-83
2022/08/16 13:54:01;;;;;;;;;;;30.30;96.50;;;;;;5007432;28;19967;-84
2022/08/16 13:56:28;;;;;;;;;;;30.40;96.50;;;;;;5008644;28;20393;-87
2022/08/16 13:58:53;;;;;;;;;;;30.40;96.30;;;;;;4988250;28;19970;-89
2022/08/16 14:01:19;;;;;;;;;;;30.50;96.80;;;;;;5004382;28;20355;-86
2022/08/16 14:03:45;;;;;;;;;;;30.40;96.70;;;;;;4991315;28;19921;-84
2022/08/16 14:06:11;;;;;;;;;;;30.20;97.20;;;;;;4989138;28;19981;-87
2022/08/16 14:08:37;;;;;;;;;;;30.10;97.30;;;;;;5024537;28;19921;-88
2022/08/16 14:11:04;;;;;;;;;;;30.10;97.40;;;;;;5013182;28;19936;-82
2022/08/16 14:13:30;;;;;;;;;;;30.00;97.50;;;;;;5012836;28;19945;-85
2022/08/16 14:15:56;;;;;;;;;;;29.90;97.40;;;;;;5012757;28;19928;-84